sensor_id;sensor_type;location;lat;lon;timestamp;pressure;altitude;pressure_sealevel;temperature;humidity
16016;BME280;8112;53.592;10.184;2023-08-06T00:01:59;100488.97;;;17.01;100.00
16016;BME280;8112;53.592;10.184;2023-08-06T00:07:01;100489.81;;;17.11;100.00
16016;BME280;8112;53.592;10.184;2023-08-06T00:12:05;100484.91;;;17.16;100.00
16016;BME280;8112;53.592;10.184;2023-08-06T00:17:07;100488.25;;;16.99;100.00
16016;BME280;8112;53.592;10.184;2023-08-06T00:22:09;100480.38;;;16.77;100.00
16016;BME280;8112;53.592;10.184;2023-08-06T00:27:12;100481.13;;;16.48;100.00
16016;BME280;8112;53.592;10.184;2023-08-06T00:32:13;100483.03;;;16.27;100.00
16016;BME280;8112;53.592;10.184;2023-08-06T00:37:15;100491.41;;;16.22;100.00
16016;BME280;8112;53.592;10.184;2023-08-06T00:42:19;100487.38;;;16.28;100.00
16016;BME280;8112;53.592;10.184;2023-08-06T00:47:21;100480.75;;;16.22;100.00
16016;BME280;8112;53.592;10.184;2023-08-06T00:52:23;100478.78;;;16.14;100.00
16016;BME280;8112;53.592;10.184;2023-08-06T00:57:26;100478.03;;;16.02;100.00
16016;BME280;8112;53.592;10.184;2023-08-06T01:02:28;100470.28;;;16.20;100.00
16016;BME280;8112;53.592;10.184;2023-08-06T01:07:39;100463.56;;;16.26;100.00
16016;BME280;8112;53.592;10.184;2023-08-06T01:12:55;100460.19;;;16.24;100.00
16016;BME280;8112;53.592;10.184;2023-08-06T01:18:04;100460.03;;;16.16;100.00
16016;BME280;8112;53.592;10.184;2023-08-06T01:23:07;100448.66;;;16.04;100.00
16016;BME280;8112;53.592;10.184;2023-08-06T01:28:14;100449.50;;;16.04;100.00
16016;BME280;8112;53.592;10.184;2023-08-06T01:33:21;100455.06;;;15.80;100.00
16016;BME280;8112;53.592;10.184;2023-08-06T01:38:25;100448.56;;;15.63;100.00
16016;BME280;8112;53.592;10.184;2023-08-06T01:43:28;100455.28;;;15.67;100.00
16016;BME280;8112;53.592;10.184;2023-08-06T01:48:30;100449.28;;;15.65;100.00
16016;BME280;8112;53.592;10.184;2023-08-06T01:53:33;100448.03;;;15.69;100.00
16016;BME280;8112;53.592;10.184;2023-08-06T01:58:35;100446.66;;;15.75;100.00
16016;BME280;8112;53.592;10.184;2023-08-06T02:03:37;100443.84;;;15.66;100.00
16016;BME280;8112;53.592;10.184;2023-08-06T02:08:40;100439.09;;;15.70;100.00
16016;BME280;8112;53.592;10.184;2023-08-06T02:13:42;100435.22;;;15.74;100.00
16016;BME280;8112;53.592;10.184;2023-08-06T02:18:43;100420.38;;;15.72;100.00
16016;BME280;8112;53.592;10.184;2023-08-06T02:23:46;100435.94;;;15.76;100.00
16016;BME280;8112;53.592;10.184;2023-08-06T02:28:48;100437.53;;;15.89;100.00
16016;BME280;8112;53.592;10.184;2023-08-06T02:33:50;100422.22;;;16.02;100.00
16016;BME280;8112;53.592;10.184;2023-08-06T02:38:53;100434.72;;;16.12;100.00
16016;BME280;8112;53.592;10.184;2023-08-06T02:43:55;100416.84;;;16.23;100.00
16016;BME280;8112;53.592;10.184;2023-08-06T02:48:57;100403.34;;;16.05;100.00
16016;BME280;8112;53.592;10.184;2023-08-06T02:54:00;100397.66;;;16.20;100.00
16016;BME280;8112;53.592;10.184;2023-08-06T02:59:02;100388.16;;;16.27;100.00
16016;BME280;8112;53.592;10.184;2023-08-06T03:04:17;100380.16;;;16.27;100.00
16016;BME280;8112;53.592;10.184;2023-08-06T03:09:23;100381.84;;;16.28;100.00
16016;BME280;8112;53.592;10.184;2023-08-06T03:14:26;100381.03;;;16.28;100.00
16016;BME280;8112;53.592;10.184;2023-08-06T03:19:31;100366.63;;;16.30;100.00
16016;BME280;8112;53.592;10.184;2023-08-06T03:24:34;100361.84;;;16.34;100.00
16016;BME280;8112;53.592;10.184;2023-08-06T03:29:36;100355.72;;;16.33;100.00
16016;BME280;8112;53.592;10.184;2023-08-06T03:34:38;100357.91;;;16.28;100.00
16016;BME280;8112;53.592;10.184;2023-08-06T03:39:42;100346.06;;;16.32;100.00
16016;BME280;8112;53.592;10.184;2023-08-06T03:44:44;100343.41;;;16.32;100.00
16016;BME280;8112;53.592;10.184;2023-08-06T03:49:46;100343.50;;;16.21;100.00
16016;BME280;8112;53.592;10.184;2023-08-06T03:54:49;100336.91;;;16.15;100.00
16016;BME280;8112;53.592;10.184;2023-08-06T03:59:51;100331.03;;;16.02;100.00
16016;BME280;8112;53.592;10.184;2023-08-06T04:04:53;100330.53;;;15.87;100.00
16016;BME280;8112;53.592;10.184;2023-08-06T04:09:58;100326.44;;;15.73;100.00
16016;BME280;8112;53.592;10.184;2023-08-06T04:15:01;100326.81;;;15.68;100.00
16016;BME280;8112;53.592;10.184;2023-08-06T04:20:04;100323.31;;;15.58;100.00
16016;BME280;8112;53.592;10.184;2023-08-06T04:25:08;100330.28;;;15.59;100.00
16016;BME280;8112;53.592;10.184;2023-08-06T04:30:11;100335.72;;;15.57;100.00
16016;BME280;8112;53.592;10.184;2023-08-06T04:35:13;100347.59;;;15.53;100.00
16016;BME280;8112;53.592;10.184;2023-08-06T04:40:17;100346.50;;;15.56;100.00
16016;BME280;8112;53.592;10.184;2023-08-06T04:45:19;100354.19;;;15.59;100.00
16016;BME280;8112;53.592;10.184;2023-08-06T04:50:21;100354.00;;;15.50;100.00
16016;BME280;8112;53.592;10.184;2023-08-06T04:55:24;100356.38;;;15.53;100.00
16016;BME280;8112;53.592;10.184;2023-08-06T05:00:25;100350.53;;;15.50;100.00
16016;BME280;8112;53.592;10.184;2023-08-06T05:05:27;100342.56;;;15.50;100.00
16016;BME280;8112;53.592;10.184;2023-08-06T05:10:30;100346.22;;;15.59;100.00
16016;BME280;8112;53.592;10.184;2023-08-06T05:15:32;100347.91;;;15.60;100.00
16016;BME280;8112;53.592;10.184;2023-08-06T05:20:36;100357.13;;;15.56;100.00
16016;BME280;8112;53.592;10.184;2023-08-06T05:25:39;100352.25;;;15.61;100.00
16016;BME280;8112;53.592;10.184;2023-08-06T05:30:41;100355.53;;;15.74;100.00
16016;BME280;8112;53.592;10.184;2023-08-06T05:35:43;100350.91;;;15.76;100.00
16016;BME280;8112;53.592;10.184;2023-08-06T05:40:46;100351.53;;;15.90;100.00
16016;BME280;8112;53.592;10.184;2023-08-06T05:45:49;100341.34;;;15.95;100.00
16016;BME280;8112;53.592;10.184;2023-08-06T05:50:51;100344.72;;;15.97;100.00
16016;BME280;8112;53.592;10.184;2023-08-06T05:55:54;100342.41;;;15.82;100.00
16016;BME280;8112;53.592;10.184;2023-08-06T06:00:56;100344.09;;;15.84;100.00
16016;BME280;8112;53.592;10.184;2023-08-06T06:05:58;100341.63;;;15.92;100.00
16016;BME280;8112;53.592;10.184;2023-08-06T06:11:02;100336.34;;;16.02;100.00
16016;BME280;8112;53.592;10.184;2023-08-06T06:16:04;100333.16;;;16.18;100.00
16016;BME280;8112;53.592;10.184;2023-08-06T06:21:06;100338.47;;;16.28;100.00
16016;BME280;8112;53.592;10.184;2023-08-06T06:26:09;100338.22;;;16.41;100.00
16016;BME280;8112;53.592;10.184;2023-08-06T06:31:11;100329.41;;;16.50;100.00
16016;BME280;8112;53.592;10.184;2023-08-06T06:36:13;100325.91;;;16.69;100.00
16016;BME280;8112;53.592;10.184;2023-08-06T06:41:16;100327.28;;;16.83;100.00
16016;BME280;8112;53.592;10.184;2023-08-06T06:46:17;100331.91;;;16.91;100.00
16016;BME280;8112;53.592;10.184;2023-08-06T06:51:19;100321.69;;;16.96;100.00
16016;BME280;8112;53.592;10.184;2023-08-06T06:56:22;100323.22;;;16.79;100.00
16016;BME280;8112;53.592;10.184;2023-08-06T07:01:24;100326.47;;;16.73;100.00
16016;BME280;8112;53.592;10.184;2023-08-06T07:06:25;100324.63;;;16.83;100.00
16016;BME280;8112;53.592;10.184;2023-08-06T07:11:29;100325.63;;;17.02;100.00
16016;BME280;8112;53.592;10.184;2023-08-06T07:16:30;100321.38;;;17.19;100.00
16016;BME280;8112;53.592;10.184;2023-08-06T07:21:32;100320.91;;;17.43;100.00
16016;BME280;8112;53.592;10.184;2023-08-06T07:26:37;100311.38;;;17.41;100.00
16016;BME280;8112;53.592;10.184;2023-08-06T07:31:38;100308.97;;;17.47;100.00
16016;BME280;8112;53.592;10.184;2023-08-06T07:36:40;100310.41;;;17.70;100.00
16016;BME280;8112;53.592;10.184;2023-08-06T07:41:45;100313.84;;;17.80;100.00
16016;BME280;8112;53.592;10.184;2023-08-06T07:46:47;100314.91;;;17.97;100.00
16016;BME280;8112;53.592;10.184;2023-08-06T07:51:49;100297.50;;;17.93;100.00
16016;BME280;8112;53.592;10.184;2023-08-06T07:56:53;100294.38;;;17.79;100.00
16016;BME280;8112;53.592;10.184;2023-08-06T08:01:55;100294.06;;;17.83;100.00
16016;BME280;8112;53.592;10.184;2023-08-06T08:06:56;100288.34;;;17.77;100.00
16016;BME280;8112;53.592;10.184;2023-08-06T08:11:59;100291.53;;;17.81;100.00
16016;BME280;8112;53.592;10.184;2023-08-06T08:17:03;100289.34;;;17.76;100.00
16016;BME280;8112;53.592;10.184;2023-08-06T08:22:06;100293.69;;;17.95;100.00
16016;BME280;8112;53.592;10.184;2023-08-06T08:27:09;100288.81;;;18.19;100.00
16016;BME280;8112;53.592;10.184;2023-08-06T08:32:10;100280.88;;;18.27;100.00
16016;BME280;8112;53.592;10.184;2023-08-06T08:37:12;100280.28;;;18.33;100.00
16016;BME280;8112;53.592;10.184;2023-08-06T08:42:16;100274.19;;;18.41;100.00
16016;BME280;8112;53.592;10.184;2023-08-06T08:47:17;100277.53;;;18.25;100.00
16016;BME280;8112;53.592;10.184;2023-08-06T08:52:20;100272.81;;;18.19;100.00
16016;BME280;8112;53.592;10.184;2023-08-06T08:57:24;100272.44;;;18.14;100.00
16016;BME280;8112;53.592;10.184;2023-08-06T09:02:28;100274.50;;;18.20;100.00
16016;BME280;8112;53.592;10.184;2023-08-06T09:07:34;100269.41;;;17.99;100.00
16016;BME280;8112;53.592;10.184;2023-08-06T09:12:38;100265.13;;;17.88;100.00
16016;BME280;8112;53.592;10.184;2023-08-06T09:17:39;100270.38;;;17.51;100.00
16016;BME280;8112;53.592;10.184;2023-08-06T09:22:41;100271.34;;;17.22;100.00
16016;BME280;8112;53.592;10.184;2023-08-06T09:27:47;100277.72;;;17.02;100.00
16016;BME280;8112;53.592;10.184;2023-08-06T09:32:49;100273.94;;;16.75;100.00
16016;BME280;8112;53.592;10.184;2023-08-06T09:37:51;100287.84;;;16.69;100.00
16016;BME280;8112;53.592;10.184;2023-08-06T09:42:54;100293.00;;;16.70;100.00
16016;BME280;8112;53.592;10.184;2023-08-06T09:47:57;100304.63;;;16.59;100.00
16016;BME280;8112;53.592;10.184;2023-08-06T09:52:59;100315.25;;;16.59;100.00
16016;BME280;8112;53.592;10.184;2023-08-06T09:58:03;100321.97;;;16.53;100.00
16016;BME280;8112;53.592;10.184;2023-08-06T10:03:06;100323.53;;;16.36;100.00
16016;BME280;8112;53.592;10.184;2023-08-06T10:08:09;100328.84;;;16.46;100.00
16016;BME280;8112;53.592;10.184;2023-08-06T10:13:12;100324.78;;;16.52;100.00
16016;BME280;8112;53.592;10.184;2023-08-06T10:18:15;100335.97;;;16.46;100.00
16016;BME280;8112;53.592;10.184;2023-08-06T10:23:33;100330.94;;;16.33;100.00
16016;BME280;8112;53.592;10.184;2023-08-06T10:28:38;100334.44;;;16.33;100.00
16016;BME280;8112;53.592;10.184;2023-08-06T10:33:41;100335.13;;;16.35;100.00
16016;BME280;8112;53.592;10.184;2023-08-06T10:38:45;100329.69;;;16.47;100.00
16016;BME280;8112;53.592;10.184;2023-08-06T10:43:49;100329.69;;;16.47;100.00
16016;BME280;8112;53.592;10.184;2023-08-06T10:48:51;100329.41;;;16.50;100.00
16016;BME280;8112;53.592;10.184;2023-08-06T10:53:54;100335.28;;;16.63;100.00
16016;BME280;8112;53.592;10.184;2023-08-06T10:58:57;100330.22;;;16.80;100.00
16016;BME280;8112;53.592;10.184;2023-08-06T11:04:01;100319.59;;;16.80;100.00
16016;BME280;8112;53.592;10.184;2023-08-06T11:09:05;100318.47;;;16.73;100.00
16016;BME280;8112;53.592;10.184;2023-08-06T11:14:14;100302.94;;;16.68;100.00
16016;BME280;8112;53.592;10.184;2023-08-06T11:19:16;100298.75;;;16.65;100.00
16016;BME280;8112;53.592;10.184;2023-08-06T11:24:18;100309.78;;;16.90;100.00
16016;BME280;8112;53.592;10.184;2023-08-06T11:29:21;100302.81;;;16.99;100.00
16016;BME280;8112;53.592;10.184;2023-08-06T11:34:23;100294.50;;;16.92;100.00
16016;BME280;8112;53.592;10.184;2023-08-06T11:39:25;100301.69;;;17.02;100.00
16016;BME280;8112;53.592;10.184;2023-08-06T11:44:30;100298.16;;;16.91;100.00
16016;BME280;8112;53.592;10.184;2023-08-06T11:49:40;100299.72;;;16.84;100.00
16016;BME280;8112;53.592;10.184;2023-08-06T11:54:42;100294.22;;;16.95;100.00
16016;BME280;8112;53.592;10.184;2023-08-06T11:59:45;100292.84;;;17.01;100.00
16016;BME280;8112;53.592;10.184;2023-08-06T12:04:58;100290.25;;;17.29;100.00
16016;BME280;8112;53.592;10.184;2023-08-06T12:09:59;100274.72;;;17.24;100.00
16016;BME280;8112;53.592;10.184;2023-08-06T12:15:04;100289.44;;;17.57;100.00
16016;BME280;8112;53.592;10.184;2023-08-06T12:20:07;100270.22;;;17.81;100.00
16016;BME280;8112;53.592;10.184;2023-08-06T12:25:10;100261.91;;;18.12;100.00
16016;BME280;8112;53.592;10.184;2023-08-06T12:30:14;100247.81;;;18.20;100.00
16016;BME280;8112;53.592;10.184;2023-08-06T12:35:16;100238.59;;;18.32;100.00
16016;BME280;8112;53.592;10.184;2023-08-06T12:40:17;100225.81;;;18.62;100.00
16016;BME280;8112;53.592;10.184;2023-08-06T12:45:21;100220.59;;;18.79;100.00
16016;BME280;8112;53.592;10.184;2023-08-06T12:50:23;100216.66;;;18.91;100.00
16016;BME280;8112;53.592;10.184;2023-08-06T12:55:25;100209.00;;;18.97;100.00
16016;BME280;8112;53.592;10.184;2023-08-06T13:00:28;100198.91;;;19.08;100.00
16016;BME280;8112;53.592;10.184;2023-08-06T13:05:30;100186.56;;;19.42;100.00
16016;BME280;8112;53.592;10.184;2023-08-06T13:10:31;100177.00;;;19.40;100.00
16016;BME280;8112;53.592;10.184;2023-08-06T13:15:34;100174.38;;;19.64;100.00
16016;BME280;8112;53.592;10.184;2023-08-06T13:20:38;100164.09;;;19.86;100.00
16016;BME280;8112;53.592;10.184;2023-08-06T13:25:40;100167.78;;;19.93;100.00
16016;BME280;8112;53.592;10.184;2023-08-06T13:30:43;100162.59;;;19.92;100.00
16016;BME280;8112;53.592;10.184;2023-08-06T13:35:45;100154.94;;;20.14;100.00
16016;BME280;8112;53.592;10.184;2023-08-06T13:40:46;100158.44;;;19.98;100.00
16016;BME280;8112;53.592;10.184;2023-08-06T13:45:50;100152.19;;;19.64;100.00
16016;BME280;8112;53.592;10.184;2023-08-06T13:50:52;100150.34;;;19.56;100.00
16016;BME280;8112;53.592;10.184;2023-08-06T13:55:54;100154.69;;;19.65;100.00
16016;BME280;8112;53.592;10.184;2023-08-06T14:00:57;100170.03;;;19.55;100.00
16016;BME280;8112;53.592;10.184;2023-08-06T14:05:58;100167.13;;;19.32;100.00
16016;BME280;8112;53.592;10.184;2023-08-06T14:11:00;100169.59;;;19.17;100.00
16016;BME280;8112;53.592;10.184;2023-08-06T14:16:03;100166.75;;;19.18;100.00
16016;BME280;8112;53.592;10.184;2023-08-06T14:21:05;100168.16;;;19.39;100.00
16016;BME280;8112;53.592;10.184;2023-08-06T14:26:07;100171.53;;;19.41;100.00
16016;BME280;8112;53.592;10.184;2023-08-06T14:31:12;100174.00;;;19.43;100.00
16016;BME280;8112;53.592;10.184;2023-08-06T14:36:14;100162.81;;;18.96;100.00
16016;BME280;8112;53.592;10.184;2023-08-06T14:41:15;100173.41;;;18.79;100.00
16016;BME280;8112;53.592;10.184;2023-08-06T14:46:18;100162.34;;;18.48;100.00
16016;BME280;8112;53.592;10.184;2023-08-06T14:51:20;100165.13;;;18.38;100.00
16016;BME280;8112;53.592;10.184;2023-08-06T14:56:22;100167.09;;;18.36;100.00
16016;BME280;8112;53.592;10.184;2023-08-06T15:01:25;100177.06;;;18.52;100.00
16016;BME280;8112;53.592;10.184;2023-08-06T15:06:26;100168.63;;;18.65;100.00
16016;BME280;8112;53.592;10.184;2023-08-06T15:11:28;100165.72;;;18.50;100.00
16016;BME280;8112;53.592;10.184;2023-08-06T15:16:34;100177.28;;;18.59;100.00
16016;BME280;8112;53.592;10.184;2023-08-06T15:21:35;100172.97;;;18.66;100.00
16016;BME280;8112;53.592;10.184;2023-08-06T15:26:37;100167.22;;;18.52;100.00
16016;BME280;8112;53.592;10.184;2023-08-06T15:31:40;100168.44;;;18.58;100.00
16016;BME280;8112;53.592;10.184;2023-08-06T15:36:42;100166.75;;;18.57;100.00
16016;BME280;8112;53.592;10.184;2023-08-06T15:41:43;100165.72;;;18.76;100.00
16016;BME280;8112;53.592;10.184;2023-08-06T15:46:46;100160.94;;;18.88;100.00
16016;BME280;8112;53.592;10.184;2023-08-06T15:51:51;100164.34;;;18.99;100.00
16016;BME280;8112;53.592;10.184;2023-08-06T15:56:53;100174.63;;;18.93;100.00
16016;BME280;8112;53.592;10.184;2023-08-06T16:01:57;100176.75;;;18.82;100.00
16016;BME280;8112;53.592;10.184;2023-08-06T16:06:59;100174.44;;;18.60;100.00
16016;BME280;8112;53.592;10.184;2023-08-06T16:12:01;100169.22;;;18.50;100.00
16016;BME280;8112;53.592;10.184;2023-08-06T16:17:05;100165.09;;;18.56;100.00
16016;BME280;8112;53.592;10.184;2023-08-06T16:22:09;100164.97;;;18.40;100.00
16016;BME280;8112;53.592;10.184;2023-08-06T16:27:10;100169.25;;;18.32;100.00
16016;BME280;8112;53.592;10.184;2023-08-06T16:32:13;100175.38;;;18.25;100.00
16016;BME280;8112;53.592;10.184;2023-08-06T16:37:15;100172.69;;;18.25;100.00
16016;BME280;8112;53.592;10.184;2023-08-06T16:42:17;100178.94;;;18.33;100.00
16016;BME280;8112;53.592;10.184;2023-08-06T16:47:20;100181.28;;;18.36;100.00
16016;BME280;8112;53.592;10.184;2023-08-06T16:52:21;100176.63;;;18.38;100.00
16016;BME280;8112;53.592;10.184;2023-08-06T16:57:23;100173.97;;;18.20;100.00
16016;BME280;8112;53.592;10.184;2023-08-06T17:02:26;100183.28;;;18.16;100.00
16016;BME280;8112;53.592;10.184;2023-08-06T17:07:28;100182.78;;;18.13;100.00
16016;BME280;8112;53.592;10.184;2023-08-06T17:12:29;100179.13;;;18.14;100.00
16016;BME280;8112;53.592;10.184;2023-08-06T17:17:32;100180.03;;;18.04;100.00
16016;BME280;8112;53.592;10.184;2023-08-06T17:22:34;100182.88;;;17.93;100.00
16016;BME280;8112;53.592;10.184;2023-08-06T17:27:36;100183.13;;;17.81;100.00
16016;BME280;8112;53.592;10.184;2023-08-06T17:32:39;100181.59;;;17.79;100.00
16016;BME280;8112;53.592;10.184;2023-08-06T17:37:41;100185.84;;;17.72;100.00
16016;BME280;8112;53.592;10.184;2023-08-06T17:42:42;100191.19;;;17.72;100.00
16016;BME280;8112;53.592;10.184;2023-08-06T17:47:45;100187.28;;;17.66;100.00
16016;BME280;8112;53.592;10.184;2023-08-06T17:52:50;100196.28;;;17.65;100.00
16016;BME280;8112;53.592;10.184;2023-08-06T17:57:51;100201.91;;;17.62;100.00
16016;BME280;8112;53.592;10.184;2023-08-06T18:02:54;100196.03;;;17.58;100.00
16016;BME280;8112;53.592;10.184;2023-08-06T18:07:56;100199.81;;;17.56;100.00
16016;BME280;8112;53.592;10.184;2023-08-06T18:12:58;100196.09;;;17.48;100.00
16016;BME280;8112;53.592;10.184;2023-08-06T18:18:01;100196.69;;;17.42;100.00
16016;BME280;8112;53.592;10.184;2023-08-06T18:23:03;100195.28;;;17.38;100.00
16016;BME280;8112;53.592;10.184;2023-08-06T18:28:05;100195.78;;;17.33;100.00
16016;BME280;8112;53.592;10.184;2023-08-06T18:33:08;100199.56;;;17.31;100.00
16016;BME280;8112;53.592;10.184;2023-08-06T18:38:10;100204.19;;;17.29;100.00
16016;BME280;8112;53.592;10.184;2023-08-06T18:43:11;100209.13;;;17.23;100.00
16016;BME280;8112;53.592;10.184;2023-08-06T18:48:14;100211.97;;;17.12;100.00
16016;BME280;8112;53.592;10.184;2023-08-06T18:53:16;100207.53;;;17.03;100.00
16016;BME280;8112;53.592;10.184;2023-08-06T18:58:21;100200.25;;;16.95;100.00
16016;BME280;8112;53.592;10.184;2023-08-06T19:03:24;100202.34;;;16.91;100.00
16016;BME280;8112;53.592;10.184;2023-08-06T19:08:26;100193.00;;;16.87;100.00
16016;BME280;8112;53.592;10.184;2023-08-06T19:13:27;100192.44;;;16.84;100.00
16016;BME280;8112;53.592;10.184;2023-08-06T19:18:31;100199.31;;;16.76;100.00
16016;BME280;8112;53.592;10.184;2023-08-06T19:23:32;100197.22;;;16.70;100.00
16016;BME280;8112;53.592;10.184;2023-08-06T19:28:34;100188.53;;;16.68;100.00
16016;BME280;8112;53.592;10.184;2023-08-06T19:33:37;100196.41;;;16.70;100.00
16016;BME280;8112;53.592;10.184;2023-08-06T19:38:41;100180.00;;;16.64;100.00
16016;BME280;8112;53.592;10.184;2023-08-06T19:43:43;100172.88;;;16.65;100.00
16016;BME280;8112;53.592;10.184;2023-08-06T19:48:47;100174.16;;;16.61;100.00
16016;BME280;8112;53.592;10.184;2023-08-06T19:53:50;100174.31;;;16.49;100.00
16016;BME280;8112;53.592;10.184;2023-08-06T19:58:53;100175.72;;;16.44;100.00
16016;BME280;8112;53.592;10.184;2023-08-06T20:03:56;100171.28;;;16.34;100.00
16016;BME280;8112;53.592;10.184;2023-08-06T20:08:57;100176.44;;;16.36;100.00
16016;BME280;8112;53.592;10.184;2023-08-06T20:13:59;100175.19;;;16.30;100.00
16016;BME280;8112;53.592;10.184;2023-08-06T20:19:02;100178.97;;;16.28;100.00
16016;BME280;8112;53.592;10.184;2023-08-06T20:24:06;100182.34;;;16.20;100.00
16016;BME280;8112;53.592;10.184;2023-08-06T20:29:08;100186.38;;;16.14;100.00
16016;BME280;8112;53.592;10.184;2023-08-06T20:34:11;100194.66;;;16.11;100.00
16016;BME280;8112;53.592;10.184;2023-08-06T20:39:12;100192.97;;;16.10;100.00
16016;BME280;8112;53.592;10.184;2023-08-06T20:44:14;100197.19;;;16.13;100.00
16016;BME280;8112;53.592;10.184;2023-08-06T20:49:17;100190.19;;;16.12;100.00
16016;BME280;8112;53.592;10.184;2023-08-06T20:54:19;100200.66;;;16.13;100.00
16016;BME280;8112;53.592;10.184;2023-08-06T20:59:20;100209.03;;;16.18;100.00
16016;BME280;8112;53.592;10.184;2023-08-06T21:04:23;100212.97;;;16.24;100.00
16016;BME280;8112;53.592;10.184;2023-08-06T21:09:26;100212.97;;;16.24;100.00
16016;BME280;8112;53.592;10.184;2023-08-06T21:14:27;100216.75;;;16.21;100.00
16016;BME280;8112;53.592;10.184;2023-08-06T21:19:31;100216.88;;;16.20;100.00
16016;BME280;8112;53.592;10.184;2023-08-06T21:24:32;100223.47;;;16.26;100.00
16016;BME280;8112;53.592;10.184;2023-08-06T21:29:34;100211.84;;;16.27;100.00
16016;BME280;8112;53.592;10.184;2023-08-06T21:34:38;100217.59;;;16.22;100.00
16016;BME280;8112;53.592;10.184;2023-08-06T21:39:40;100211.69;;;16.08;100.00
16016;BME280;8112;53.592;10.184;2023-08-06T21:44:42;100228.91;;;16.04;100.00
16016;BME280;8112;53.592;10.184;2023-08-06T21:49:45;100229.19;;;16.11;100.00
16016;BME280;8112;53.592;10.184;2023-08-06T21:54:46;100224.00;;;16.09;100.00
16016;BME280;8112;53.592;10.184;2023-08-06T21:59:50;100228.91;;;16.04;100.00
16016;BME280;8112;53.592;10.184;2023-08-06T22:04:54;100227.38;;;16.02;100.00
16016;BME280;8112;53.592;10.184;2023-08-06T22:09:55;100230.28;;;15.99;100.00
16016;BME280;8112;53.592;10.184;2023-08-06T22:14:57;100227.50;;;16.00;100.00
16016;BME280;8112;53.592;10.184;2023-08-06T22:20:00;100224.84;;;16.00;100.00
16016;BME280;8112;53.592;10.184;2023-08-06T22:25:03;100225.25;;;15.95;100.00
16016;BME280;8112;53.592;10.184;2023-08-06T22:30:06;100214.22;;;15.90;100.00
16016;BME280;8112;53.592;10.184;2023-08-06T22:35:10;100213.91;;;15.84;100.00
16016;BME280;8112;53.592;10.184;2023-08-06T22:40:11;100213.19;;;15.81;100.00
16016;BME280;8112;53.592;10.184;2023-08-06T22:45:14;100209.56;;;15.82;100.00
16016;BME280;8112;53.592;10.184;2023-08-06T22:50:17;100211.81;;;15.77;100.00
16016;BME280;8112;53.592;10.184;2023-08-06T22:55:18;100218.78;;;15.78;100.00
16016;BME280;8112;53.592;10.184;2023-08-06T23:00:20;100213.50;;;15.88;100.00
16016;BME280;8112;53.592;10.184;2023-08-06T23:05:23;100214.59;;;15.76;100.00
16016;BME280;8112;53.592;10.184;2023-08-06T23:10:27;100214.00;;;15.72;100.00
16016;BME280;8112;53.592;10.184;2023-08-06T23:15:29;100219.88;;;15.66;100.00
16016;BME280;8112;53.592;10.184;2023-08-06T23:20:32;100216.81;;;15.61;100.00
16016;BME280;8112;53.592;10.184;2023-08-06T23:25:34;100216.81;;;15.61;100.00
16016;BME280;8112;53.592;10.184;2023-08-06T23:30:36;100221.53;;;15.57;100.00
16016;BME280;8112;53.592;10.184;2023-08-06T23:35:39;100218.31;;;15.53;100.00
16016;BME280;8112;53.592;10.184;2023-08-06T23:40:40;100217.47;;;15.53;100.00
16016;BME280;8112;53.592;10.184;2023-08-06T23:45:43;100208.94;;;15.49;100.00
16016;BME280;8112;53.592;10.184;2023-08-06T23:50:46;100208.22;;;15.47;100.00
16016;BME280;8112;53.592;10.184;2023-08-06T23:55:48;100202.09;;;15.47;100.00
